Time;durP1;ratioP1;P1;durP2;ratioP2;P2;SDS_P1;SDS_P2;PMS_P1;PMS_P2;Temp;Humidity;BMP_temperature;BMP_pressure;BME280_temperature;BME280_humidity;BME280_pressure;Samples;Min_cycle;Max_cycle;Signal;HPM_P1;HPM_P2
2022/04/16 00:02:03;;;;;;;3.50;2.27;;;;;;;7.69;74.83;96512.09;4975986;28;20184;-83
2022/04/16 00:04:28;;;;;;;2.27;2.07;;;;;;;7.62;74.88;96516.84;4994135;28;20183;-82
2022/04/16 00:06:55;;;;;;;2.50;1.83;;;;;;;7.56;74.71;96512.91;4976021;28;20218;-83
2022/04/16 00:09:20;;;;;;;2.20;2.00;;;;;;;7.60;74.54;96504.03;4979574;28;20172;-83
2022/04/16 00:11:45;;;;;;;2.10;1.80;;;;;;;7.56;75.22;96502.59;4979399;28;20211;-83
2022/04/16 00:14:12;;;;;;;2.83;2.57;;;;;;;7.54;75.29;96504.44;4993351;28;20218;-82
2022/04/16 00:16:37;;;;;;;2.50;2.20;;;;;;;7.46;75.47;96506.72;4956531;28;20247;-83
2022/04/16 00:19:03;;;;;;;2.80;2.27;;;;;;;7.49;75.46;96506.50;4979337;28;20212;-82
2022/04/16 00:21:28;;;;;;;3.30;2.40;;;;;;;7.37;75.75;96503.03;4963458;28;20645;-82
2022/04/16 00:23:53;;;;;;;2.07;1.87;;;;;;;7.31;75.71;96502.59;4997171;28;20176;-82
2022/04/16 00:26:20;;;;;;;2.43;1.97;;;;;;;7.37;75.77;96508.19;4963538;28;20226;-82
2022/04/16 00:28:46;;;;;;;2.33;2.13;;;;;;;7.26;76.40;96505.50;4979638;28;20208;-82
2022/04/16 00:31:12;;;;;;;2.37;2.10;;;;;;;7.37;76.00;96502.19;4962838;28;20533;-80
2022/04/16 00:33:37;;;;;;;2.50;2.30;;;;;;;7.35;75.81;96504.06;4963040;28;20196;-81
2022/04/16 00:36:03;;;;;;;2.50;2.07;;;;;;;7.27;76.04;96504.59;4979129;28;20188;-82
2022/04/16 00:38:28;;;;;;;2.37;2.17;;;;;;;7.30;75.67;96500.94;4978934;28;20223;-82
2022/04/16 00:40:53;;;;;;;2.40;2.20;;;;;;;7.26;75.66;96507.28;4979211;28;20275;-82
2022/04/16 00:43:23;;;;;;;2.40;2.17;;;;;;;7.19;75.72;96499.09;4961615;28;20198;-81
2022/04/16 00:45:49;;;;;;;3.47;2.23;;;;;;;7.13;76.73;96503.84;4979147;28;20184;-82
2022/04/16 00:48:14;;;;;;;2.97;2.50;;;;;;;7.13;76.04;96511.59;4979024;28;20200;-83
2022/04/16 00:50:40;;;;;;;3.60;2.30;;;;;;;7.17;76.18;96505.31;4978359;28;20208;-82
2022/04/16 00:53:05;;;;;;;3.03;2.20;;;;;;;7.12;75.87;96507.38;4963061;28;20183;-81
2022/04/16 00:55:33;;;;;;;2.63;2.40;;;;;;;7.09;76.28;96504.06;4978925;28;20230;-82
2022/04/16 00:57:58;;;;;;;2.50;2.30;;;;;;;7.08;76.40;96504.16;4962274;28;20273;-83
2022/04/16 01:00:23;;;;;;;2.50;2.30;;;;;;;7.07;76.38;96499.94;4962057;28;20648;-83
2022/04/16 01:02:49;;;;;;;2.50;2.30;;;;;;;7.04;76.28;96506.13;4977938;28;20194;-82
2022/04/16 01:05:15;;;;;;;2.20;2.00;;;;;;;6.82;77.29;96501.56;4978341;28;20563;-81
2022/04/16 01:07:53;;;;;;;2.63;2.20;;;;;;;6.74;78.22;96508.16;4961935;28;20199;-81
2022/04/16 01:10:21;;;;;;;2.50;2.03;;;;;;;6.65;78.10;96503.59;4943171;28;20192;-82
2022/04/16 01:12:46;;;;;;;2.43;2.20;;;;;;;6.58;78.42;96505.75;4974546;28;20599;-83
2022/04/16 01:15:11;;;;;;;2.17;1.97;;;;;;;6.59;78.39;96496.25;4959082;28;20188;-83
2022/04/16 01:17:37;;;;;;;2.77;1.93;;;;;;;6.61;78.80;96497.78;4959110;28;20255;-83
2022/04/16 01:20:03;;;;;;;2.27;2.07;;;;;;;6.68;78.45;96499.06;4958428;28;20216;-84
2022/04/16 01:22:29;;;;;;;3.07;2.27;;;;;;;6.84;77.70;96501.47;4958601;28;20172;-82
2022/04/16 01:24:54;;;;;;;3.60;2.33;;;;;;;6.76;77.09;96495.97;4942698;28;20180;-82
2022/04/16 01:27:20;;;;;;;2.43;2.10;;;;;;;6.79;77.24;96488.84;4959040;28;20213;-82
2022/04/16 01:29:47;;;;;;;3.00;2.20;;;;;;;6.72;77.41;96492.78;4978211;28;20206;-83
2022/04/16 01:32:12;;;;;;;2.27;2.07;;;;;;;6.75;77.42;96496.91;4977598;28;20176;-81
2022/04/16 01:34:38;;;;;;;3.63;2.30;;;;;;;6.78;77.36;96489.78;4977652;28;20534;-82
2022/04/16 01:37:04;;;;;;;3.60;2.20;;;;;;;6.77;77.00;96484.72;4977804;28;20200;-83
2022/04/16 01:39:30;;;;;;;2.43;2.23;;;;;;;6.48;77.89;96492.63;4977811;28;20215;-82
2022/04/16 01:41:57;;;;;;;2.10;1.90;;;;;;;6.42;78.40;96492.19;4977481;28;20190;-82
2022/04/16 01:44:22;;;;;;;2.87;2.10;;;;;;;6.49;78.74;96490.84;4977030;28;20194;-82
2022/04/16 01:46:47;;;;;;;2.57;2.30;;;;;;;6.42;78.54;96494.75;4978049;28;20203;-82
2022/04/16 01:49:13;;;;;;;2.37;2.03;;;;;;;6.32;78.78;96496.28;4977523;28;20183;-81
2022/04/16 01:51:38;;;;;;;2.73;2.33;;;;;;;6.25;79.05;96491.50;4977064;28;20601;-83
2022/04/16 01:54:04;;;;;;;2.53;2.33;;;;;;;6.19;79.08;96493.66;4977363;28;20184;-83
2022/04/16 01:56:30;;;;;;;2.20;2.00;;;;;;;6.20;79.49;96503.88;4945232;28;20590;-83
2022/04/16 01:58:55;;;;;;;2.60;2.40;;;;;;;6.22;79.31;96501.19;4977337;28;20562;-81
2022/04/16 02:01:22;;;;;;;2.53;2.33;;;;;;;6.31;79.06;96500.63;4977129;28;20268;-83
2022/04/16 02:03:47;;;;;;;2.33;2.20;;;;;;;6.34;78.98;96502.16;4977310;28;20184;-82
2022/04/16 02:06:12;;;;;;;2.53;2.30;;;;;;;6.27;78.48;96498.31;4977676;28;20725;-83
2022/04/16 02:08:37;;;;;;;2.43;2.23;;;;;;;6.20;80.03;96495.31;4976985;28;20203;-82
2022/04/16 02:11:03;;;;;;;2.13;1.93;;;;;;;6.20;79.13;96495.31;4976823;28;20188;-82
2022/04/16 02:13:30;;;;;;;2.50;2.30;;;;;;;6.35;78.75;96507.22;4992855;28;20632;-82
2022/04/16 02:15:56;;;;;;;3.87;2.67;;;;;;;6.30;78.55;96505.88;4977520;28;20553;-82
2022/04/16 02:18:22;;;;;;;2.47;2.27;;;;;;;6.18;79.33;96502.31;4977114;28;20222;-83
2022/04/16 02:20:47;;;;;;;2.97;2.23;;;;;;;6.19;79.36;96501.41;4976878;28;20198;-82
2022/04/16 02:23:13;;;;;;;2.87;2.33;;;;;;;6.04;79.80;96498.03;4976690;28;20183;-83
2022/04/16 02:25:41;;;;;;;3.33;2.60;;;;;;;6.11;80.18;96495.91;4976618;28;20186;-82
2022/04/16 02:28:07;;;;;;;2.43;2.23;;;;;;;6.02;80.41;96494.72;4976876;28;20188;-82
2022/04/16 02:30:32;;;;;;;2.60;2.40;;;;;;;6.07;79.89;96502.16;4976226;28;20203;-82
2022/04/16 02:32:58;;;;;;;2.93;2.60;;;;;;;6.15;79.35;96494.78;4991993;28;20242;-83
2022/04/16 02:35:24;;;;;;;2.53;2.33;;;;;;;5.97;80.40;96497.59;4976671;28;20183;-84
2022/04/16 02:37:49;;;;;;;3.97;2.60;;;;;;;6.04;80.28;96497.22;4976067;28;20594;-82
2022/04/16 02:40:15;;;;;;;3.03;2.40;;;;;;;6.04;80.09;96495.47;4976431;28;20287;-82
2022/04/16 02:42:42;;;;;;;3.80;2.60;;;;;;;6.08;79.88;96493.50;4975118;28;20196;-82
2022/04/16 02:47:55;;;;;;;3.90;2.80;;;;;;;6.10;79.63;96495.06;4979361;28;20236;-83
2022/04/16 02:50:21;;;;;;;3.37;2.80;;;;;;;6.00;79.80;96499.13;4976254;28;20179;-82
2022/04/16 02:52:46;;;;;;;3.53;2.73;;;;;;;6.12;79.88;96497.56;4975350;28;20242;-83
2022/04/16 02:55:15;;;;;;;5.23;2.70;;;;;;;6.00;79.27;96504.28;4975776;28;20210;-83
2022/04/16 02:57:40;;;;;;;3.30;3.00;;;;;;;6.08;80.01;96494.31;4976335;28;20235;-82
2022/04/16 03:00:06;;;;;;;3.17;2.83;;;;;;;5.95;80.17;96502.03;4976400;28;20219;-82
2022/04/16 03:02:32;;;;;;;2.93;2.50;;;;;;;6.04;79.82;96505.78;4975494;28;20191;-82
2022/04/16 03:04:57;;;;;;;5.77;3.10;;;;;;;6.23;79.25;96498.53;4975782;28;20183;-83
2022/04/16 03:07:22;;;;;;;2.97;2.67;;;;;;;6.22;79.03;96501.19;4975728;28;20835;-83
2022/04/16 03:09:48;;;;;;;3.40;3.10;;;;;;;6.22;79.06;96507.19;4975921;28;20275;-83
2022/04/16 03:12:13;;;;;;;3.40;2.80;;;;;;;6.22;79.01;96506.34;4975537;28;20187;-83
2022/04/16 03:17:31;;;;;;;3.03;2.73;;;;;;;6.09;79.05;96511.44;4978760;28;20202;-82
2022/04/16 03:19:57;;;;;;;3.10;2.80;;;;;;;6.09;79.48;96508.03;4993670;28;20181;-82
2022/04/16 03:22:22;;;;;;;3.87;2.80;;;;;;;6.06;79.75;96503.09;4975242;28;20636;-82
2022/04/16 03:24:47;;;;;;;3.00;2.70;;;;;;;6.04;78.98;96503.19;4975978;28;20207;-82
2022/04/16 03:27:13;;;;;;;3.53;2.63;;;;;;;6.07;79.47;96502.16;4975799;28;20694;-83
2022/04/16 03:29:38;;;;;;;3.77;2.70;;;;;;;6.04;79.75;96502.38;4975614;28;20282;-83
2022/04/16 03:32:04;;;;;;;2.83;2.40;;;;;;;5.91;80.02;96507.44;4975395;28;20238;-82
2022/04/16 03:34:30;;;;;;;3.60;2.50;;;;;;;5.84;80.12;96495.84;4993040;28;20184;-83
2022/04/16 03:36:55;;;;;;;3.27;2.97;;;;;;;5.85;80.52;96497.50;4991927;28;20695;-83
2022/04/16 03:39:21;;;;;;;3.23;2.93;;;;;;;5.83;80.07;96494.16;4993195;28;20230;-82
2022/04/16 03:41:47;;;;;;;3.27;2.77;;;;;;;5.89;80.34;96497.19;4959151;28;20187;-83
2022/04/16 03:44:12;;;;;;;3.40;2.80;;;;;;;5.99;80.23;96500.06;4978037;28;20180;-82
2022/04/16 03:46:38;;;;;;;2.90;2.70;;;;;;;5.97;79.94;96494.19;4979423;28;20204;-81
2022/04/16 03:49:03;;;;;;;3.77;2.93;;;;;;;5.90;80.20;96504.03;4979160;28;20249;-82
2022/04/16 03:51:28;;;;;;;4.10;3.07;;;;;;;5.82;80.55;96502.84;4978936;28;20238;-82
2022/04/16 03:53:54;;;;;;;3.23;2.93;;;;;;;5.93;80.21;96506.44;4978918;28;20192;-82
2022/04/16 04:01:47;;;;;;;2.83;2.63;;;;;;;5.81;80.23;96504.59;4981096;28;20214;-82
2022/04/16 04:04:13;;;;;;;3.20;2.90;;;;;;;5.76;80.52;96509.22;4979070;28;20184;-83
2022/04/16 04:06:38;;;;;;;3.30;3.00;;;;;;;5.70;80.65;96507.00;4978971;28;20255;-83
2022/04/16 04:09:04;;;;;;;3.97;3.20;;;;;;;5.71;81.12;96516.38;4978878;28;20653;-83
2022/04/16 04:11:29;;;;;;;3.53;2.60;;;;;;;5.67;81.11;96517.50;4962296;28;20202;-82
2022/04/16 04:13:54;;;;;;;3.40;3.10;;;;;;;5.61;81.01;96520.44;4995304;28;20662;-82
2022/04/16 04:16:20;;;;;;;3.23;2.63;;;;;;;5.60;81.23;96513.66;4978849;28;20183;-82
2022/04/16 04:18:45;;;;;;;3.33;2.90;;;;;;;5.56;80.96;96517.31;4978421;28;20204;-81
2022/04/16 04:21:11;;;;;;;3.83;3.10;;;;;;;5.57;80.69;96519.00;4978507;28;20612;-82
2022/04/16 04:23:36;;;;;;;3.67;3.13;;;;;;;5.63;80.38;96523.75;4978779;28;20180;-83
2022/04/16 04:26:03;;;;;;;3.60;3.03;;;;;;;5.68;81.07;96535.44;4978368;28;20188;-82
2022/04/16 04:28:28;;;;;;;3.10;2.80;;;;;;;5.74;80.95;96530.81;4978932;28;20187;-83
2022/04/16 04:30:53;;;;;;;5.30;3.30;;;;;;;5.74;80.91;96544.53;4978291;28;20339;-82
2022/04/16 04:33:18;;;;;;;4.00;3.13;;;;;;;5.73;81.10;96537.72;4978011;28;20664;-83
2022/04/16 04:35:44;;;;;;;3.73;3.17;;;;;;;5.70;80.72;96543.09;4978233;28;20533;-83
2022/04/16 04:38:09;;;;;;;3.40;2.70;;;;;;;5.67;80.78;96541.53;4978138;28;20219;-83
2022/04/16 04:40:34;;;;;;;3.53;3.23;;;;;;;5.74;80.60;96534.22;4995818;28;20188;-83
2022/04/16 04:43:00;;;;;;;4.80;3.10;;;;;;;5.78;80.89;96542.63;4976976;28;20241;-82
2022/04/16 04:45:25;;;;;;;4.60;3.80;;;;;;;5.85;80.70;96544.72;4978267;28;20588;-83
2022/04/16 04:47:50;;;;;;;4.13;3.50;;;;;;;5.85;80.79;96549.06;4977888;28;20204;-82
2022/04/16 04:50:15;;;;;;;3.70;3.27;;;;;;;5.92;80.85;96546.03;4977805;28;20195;-82
2022/04/16 04:52:41;;;;;;;3.00;2.70;;;;;;;6.02;80.05;96548.06;4977235;28;20657;-83
2022/04/16 04:55:09;;;;;;;4.07;3.37;;;;;;;6.00;79.75;96542.13;4992967;28;20192;-81
2022/04/16 04:57:34;;;;;;;3.50;3.20;;;;;;;6.03;79.77;96542.78;4977792;28;20195;-83
2022/04/16 04:59:59;;;;;;;3.67;3.30;;;;;;;6.13;79.31;96543.03;4978050;28;20690;-82
2022/04/16 05:02:25;;;;;;;4.20;3.80;;;;;;;6.09;79.44;96546.72;4977211;28;20183;-82
2022/04/16 05:04:50;;;;;;;4.47;3.53;;;;;;;6.21;79.14;96553.72;4977810;28;20176;-82
2022/04/16 05:07:16;;;;;;;5.33;3.93;;;;;;;6.34;78.92;96552.00;4977194;28;20203;-82
2022/04/16 05:09:41;;;;;;;3.70;3.30;;;;;;;6.38;78.26;96558.63;4977573;28;20187;-82
2022/04/16 05:12:06;;;;;;;4.20;3.47;;;;;;;6.46;78.31;96551.25;4977028;28;20196;-83
2022/04/16 05:14:32;;;;;;;4.13;3.73;;;;;;;6.40;78.52;96555.97;4994903;28;20176;-83
2022/04/16 05:16:57;;;;;;;4.57;3.50;;;;;;;6.58;77.57;96559.94;4977420;28;20609;-82
2022/04/16 05:19:23;;;;;;;5.30;3.40;;;;;;;6.57;77.45;96555.72;4978192;28;20576;-83
2022/04/16 05:21:48;;;;;;;3.50;3.20;;;;;;;6.61;77.34;96564.06;4993661;28;20274;-83
2022/04/16 05:24:13;;;;;;;4.37;3.37;;;;;;;6.61;77.72;96558.91;4977333;28;20326;-83
2022/04/16 05:26:39;;;;;;;3.27;2.93;;;;;;;6.68;77.01;96561.00;4993220;28;20257;-83
2022/04/16 05:29:05;;;;;;;3.90;3.00;;;;;;;6.71;76.87;96570.28;4993770;28;20172;-82
2022/04/16 05:31:31;;;;;;;3.50;2.87;;;;;;;6.77;76.70;96560.41;4976865;28;20203;-83
2022/04/16 05:36:41;;;;;;;6.17;4.00;;;;;;;6.91;76.64;96563.84;4979875;28;20604;-82
2022/04/16 05:39:06;;;;;;;4.87;3.27;;;;;;;6.96;76.54;96569.53;4977005;28;20208;-83
2022/04/16 05:41:35;;;;;;;3.93;3.30;;;;;;;7.18;75.58;96567.19;4976967;28;20184;-83
2022/04/16 05:44:06;;;;;;;3.53;3.23;;;;;;;7.26;75.73;96566.69;4976304;28;20554;-83
2022/04/16 05:46:32;;;;;;;4.50;3.50;;;;;;;7.30;75.39;96576.72;4976551;28;20208;-83
2022/04/16 05:48:57;;;;;;;5.33;3.50;;;;;;;7.49;74.82;96581.47;4976841;28;20515;-82
2022/04/16 05:51:24;;;;;;;4.33;3.53;;;;;;;7.40;74.89;96587.25;4976140;28;20191;-83
2022/04/16 05:53:50;;;;;;;3.20;2.90;;;;;;;7.44;74.62;96586.13;4976829;28;20218;-82
2022/04/16 05:56:15;;;;;;;4.17;3.30;;;;;;;7.49;75.01;96583.22;4976392;28;20593;-82
2022/04/16 05:58:42;;;;;;;4.20;3.30;;;;;;;7.58;74.78;96583.44;4976221;28;20206;-83
2022/04/16 06:01:08;;;;;;;3.93;3.23;;;;;;;7.72;74.32;96577.34;4976288;28;20278;-82
2022/04/16 06:03:34;;;;;;;3.53;3.23;;;;;;;7.81;74.06;96586.22;4977547;28;20318;-81
2022/04/16 06:06:00;;;;;;;3.97;3.10;;;;;;;7.97;73.63;96601.50;4977584;28;20563;-79
2022/04/16 06:33:15;;;;;;;4.20;3.63;;;;;;;8.01;75.04;96611.53;5030186;28;20211;-80
2022/04/16 06:43:52;;;;;;;4.70;4.17;;;;;;;7.89;74.81;96612.38;5031419;28;20213;-79
2022/04/16 06:46:17;;;;;;;4.87;3.80;;;;;;;7.94;75.22;96618.88;5015593;28;20186;-78
2022/04/16 06:48:42;;;;;;;4.17;3.60;;;;;;;7.94;75.34;96618.88;5031353;28;20198;-79
2022/04/16 06:51:08;;;;;;;4.27;3.87;;;;;;;8.04;74.89;96615.66;5031747;28;20186;-80
2022/04/16 06:53:33;;;;;;;4.17;3.77;;;;;;;8.11;74.38;96625.47;5032250;28;20237;-79
2022/04/16 06:56:00;;;;;;;4.77;3.53;;;;;;;7.87;74.72;96625.44;5030042;28;20182;-78
2022/04/16 06:59:12;;;;;;;5.23;4.50;;;;;;;7.84;75.46;96629.97;5480489;23;20238;-80
2022/04/16 07:01:43;;;;;;;5.67;4.50;;;;;;;7.85;75.72;96632.44;5052913;28;20189;-81
2022/04/16 07:04:08;;;;;;;4.90;4.33;;;;;;;7.71;75.86;96634.31;5035693;28;20174;-83
2022/04/16 07:06:34;;;;;;;4.23;3.80;;;;;;;7.95;75.31;96630.03;5053941;28;20185;-82
2022/04/16 07:08:59;;;;;;;5.47;4.37;;;;;;;7.98;74.47;96632.44;5053777;28;20228;-82
2022/04/16 07:11:24;;;;;;;4.90;4.40;;;;;;;8.19;74.37;96628.38;5052986;28;20181;-80
2022/04/16 07:13:50;;;;;;;6.67;4.30;;;;;;;8.23;73.88;96622.06;5051937;28;20216;-81
2022/04/16 07:16:15;;;;;;;8.93;5.90;;;;;;;8.09;74.22;96627.34;5054362;28;20188;-80
2022/04/16 07:18:40;;;;;;;6.53;5.10;;;;;;;8.49;73.95;96622.84;5063072;28;20202;-80
2022/04/16 07:21:05;;;;;;;7.93;5.90;;;;;;;8.52;73.48;96625.22;5065093;28;20212;-82
2022/04/16 07:23:31;;;;;;;6.43;5.07;;;;;;;8.45;73.71;96625.75;5080780;28;20564;-81
2022/04/16 07:25:56;;;;;;;5.63;4.27;;;;;;;8.39;73.08;96631.34;5064541;28;20190;-81
2022/04/16 07:28:22;;;;;;;4.27;3.87;;;;;;;8.29;72.83;96630.31;5060873;28;20240;-80
2022/04/16 07:30:51;;;;;;;3.90;3.60;;;;;;;8.24;74.16;96639.22;5057921;28;20336;-82
2022/04/16 07:33:17;;;;;;;4.73;4.10;;;;;;;8.58;72.34;96634.31;5057028;28;20174;-81
2022/04/16 07:35:43;;;;;;;5.43;3.90;;;;;;;8.65;71.97;96642.44;5057660;28;20176;-81
2022/04/16 07:38:08;;;;;;;5.23;4.27;;;;;;;8.34;72.69;96644.59;5059553;28;20292;-81
2022/04/16 07:40:34;;;;;;;6.17;5.23;;;;;;;8.45;71.75;96641.28;5058059;28;20213;-82
2022/04/16 07:43:01;;;;;;;5.47;4.07;;;;;;;8.51;71.15;96643.44;5057608;28;20216;-82
2022/04/16 07:45:26;;;;;;;6.53;4.50;;;;;;;8.63;71.67;96639.97;5040780;28;20174;-81
2022/04/16 07:47:51;;;;;;;5.03;4.30;;;;;;;8.91;70.03;96638.00;5056615;28;20256;-83
2022/04/16 07:50:17;;;;;;;5.27;4.27;;;;;;;9.21;70.66;96642.75;5057093;28;20731;-81
2022/04/16 07:52:43;;;;;;;5.33;4.40;;;;;;;9.39;69.02;96646.56;5055736;28;20177;-82
2022/04/16 07:55:09;;;;;;;5.00;4.10;;;;;;;9.64;67.26;96651.59;5040343;28;20607;-81
2022/04/16 07:57:34;;;;;;;4.50;4.10;;;;;;;9.45;68.88;96653.03;5072930;28;20230;-80
2022/04/16 07:59:59;;;;;;;5.20;4.33;;;;;;;9.49;68.98;96644.13;5055964;28;20206;-82
2022/04/16 08:02:24;;;;;;;5.13;4.63;;;;;;;9.46;70.03;96659.91;5072473;28;20184;-82
2022/04/16 08:04:50;;;;;;;5.07;4.40;;;;;;;9.03;71.18;96657.88;5057341;28;20244;-81
2022/04/16 08:07:15;;;;;;;6.10;4.80;;;;;;;8.85;71.69;96654.84;5055776;28;20206;-81
2022/04/16 08:09:40;;;;;;;5.37;4.70;;;;;;;8.92;72.07;96669.00;5057083;28;20178;-80
2022/04/16 08:12:06;;;;;;;5.53;4.67;;;;;;;9.46;70.98;96660.72;5055384;28;20174;-82
2022/04/16 08:14:32;;;;;;;6.67;5.40;;;;;;;9.23;72.27;96659.81;5070887;28;20181;-82
2022/04/16 08:16:57;;;;;;;6.00;4.77;;;;;;;9.10;71.63;96672.03;5055383;28;20201;-81
2022/04/16 08:19:23;;;;;;;7.70;5.50;;;;;;;8.84;73.10;96673.91;5072339;28;20201;-82
2022/04/16 08:21:48;;;;;;;5.70;5.00;;;;;;;9.41;72.24;96674.97;5055229;28;20641;-81
2022/04/16 08:24:22;;;;;;;8.30;5.30;;;;;;;9.26;72.34;96679.50;5055670;28;20173;-82
2022/04/16 08:26:48;;;;;;;6.60;5.53;;;;;;;9.31;71.84;96683.41;5055200;28;20200;-81
2022/04/16 08:29:13;;;;;;;6.00;5.13;;;;;;;9.42;71.21;96674.84;5054844;28;20545;-81
2022/04/16 08:31:38;;;;;;;7.70;6.17;;;;;;;9.40;71.43;96681.09;5054407;28;20204;-81
2022/04/16 08:34:04;;;;;;;6.53;5.70;;;;;;;9.76;70.82;96678.34;5071820;28;20649;-82
2022/04/16 08:36:29;;;;;;;6.60;5.13;;;;;;;10.17;68.54;96677.00;5056295;28;20188;-83
2022/04/16 08:38:57;;;;;;;7.30;5.53;;;;;;;10.67;67.69;96685.25;5055145;28;20619;-82
2022/04/16 08:41:24;;;;;;;8.23;5.80;;;;;;;10.96;65.91;96682.97;5054745;28;20228;-81
2022/04/16 08:43:52;;;;;;;6.37;5.50;;;;;;;11.02;65.83;96693.69;5055175;28;20170;-81
2022/04/16 08:46:17;;;;;;;8.03;6.17;;;;;;;10.50;67.66;96684.78;5055240;28;20223;-81
2022/04/16 08:48:43;;;;;;;10.00;5.57;;;;;;;10.25;67.72;96690.25;5054422;28;20598;-81
2022/04/16 08:51:09;;;;;;;7.53;5.90;;;;;;;10.25;68.27;96695.44;5054767;28;20174;-81
2022/04/16 08:53:34;;;;;;;7.73;6.40;;;;;;;10.26;67.95;96691.09;5054213;28;20173;-82
2022/04/16 08:56:00;;;;;;;7.83;6.40;;;;;;;10.28;67.52;96692.59;5054491;28;20193;-81
2022/04/16 08:58:25;;;;;;;7.17;6.13;;;;;;;10.45;67.58;96686.13;5054100;28;20218;-81
2022/04/16 09:00:50;;;;;;;6.90;5.80;;;;;;;10.15;68.19;96694.44;5054317;28;20208;-81
2022/04/16 09:03:16;;;;;;;7.67;6.43;;;;;;;10.50;67.83;96694.34;5053948;28;20182;-81
2022/04/16 09:05:41;;;;;;;7.53;5.47;;;;;;;10.65;66.74;96690.56;5054468;28;20182;-81
2022/04/16 09:08:07;;;;;;;6.80;6.00;;;;;;;10.09;68.66;96689.75;5054090;28;20629;-81
2022/04/16 09:10:34;;;;;;;6.13;5.53;;;;;;;10.09;67.63;96693.16;5055752;28;20281;-81
2022/04/16 09:13:01;;;;;;;6.03;5.40;;;;;;;10.17;67.87;96687.38;5052899;28;20268;-80
2022/04/16 09:15:27;;;;;;;7.17;5.67;;;;;;;9.68;69.84;96704.03;5053952;28;20601;-81
2022/04/16 09:17:57;;;;;;;5.50;5.00;;;;;;;10.17;67.94;96687.38;5053949;28;20288;-81
2022/04/16 09:20:35;;;;;;;6.93;5.80;;;;;;;10.25;67.86;96694.59;5053898;28;20539;-81
2022/04/16 09:23:01;;;;;;;6.80;6.10;;;;;;;10.17;67.97;96684.78;5054011;28;20180;-80
2022/04/16 09:25:30;;;;;;;7.47;6.17;;;;;;;10.08;68.79;96688.91;5054344;28;20200;-80
2022/04/16 09:27:56;;;;;;;8.07;5.47;;;;;;;10.26;69.19;96691.09;5053788;28;20209;-80
2022/04/16 09:30:30;;;;;;;7.20;5.93;;;;;;;10.69;67.78;96692.00;5053936;28;20270;-81
2022/04/16 09:32:57;;;;;;;8.67;5.73;;;;;;;10.99;65.84;96686.16;5053887;28;20192;-80
2022/04/16 09:35:35;;;;;;;7.27;5.83;;;;;;;11.15;65.60;96685.75;5053750;28;20185;-80
2022/04/16 09:38:03;;;;;;;7.37;6.00;;;;;;;10.94;65.51;96683.06;5053521;28;20212;-83
2022/04/16 09:40:34;;;;;;;6.60;5.50;;;;;;;10.23;66.24;96702.50;5053449;28;20600;-82
2022/04/16 09:43:02;;;;;;;6.80;6.10;;;;;;;10.27;66.23;96690.97;5070310;28;20205;-82
2022/04/16 09:45:28;;;;;;;7.33;6.37;;;;;;;10.03;67.00;96695.38;5053676;28;20181;-81
2022/04/16 09:47:54;;;;;;;7.33;6.40;;;;;;;9.88;68.34;96694.75;5054322;28;20198;-82
2022/04/16 09:50:22;;;;;;;7.40;6.07;;;;;;;10.09;68.08;96692.34;5036852;28;20189;-82
2022/04/16 09:52:54;;;;;;;7.67;6.17;;;;;;;9.60;68.22;96703.78;5053362;28;20514;-81
2022/04/16 09:55:21;;;;;;;8.40;6.40;;;;;;;9.58;68.92;96706.50;5036900;28;20209;-80
2022/04/16 09:57:49;;;;;;;7.40;6.20;;;;;;;9.20;70.36;96700.69;5053430;28;20327;-82
2022/04/16 10:00:15;;;;;;;8.00;6.70;;;;;;;9.25;70.93;96699.41;5037322;28;20453;-82
2022/04/16 10:02:42;;;;;;;7.97;6.43;;;;;;;9.32;70.64;96705.81;5054487;28;20205;-82
2022/04/16 10:05:08;;;;;;;8.03;6.53;;;;;;;9.38;70.82;96701.13;5053680;28;20173;-82
2022/04/16 10:07:34;;;;;;;9.23;6.83;;;;;;;9.09;72.27;96707.44;5053015;28;20561;-80
2022/04/16 10:10:03;;;;;;;9.67;7.37;;;;;;;9.16;72.35;96707.03;5053672;28;20240;-80
2022/04/16 10:15:18;;;;;;;7.20;6.40;;;;;;;9.70;70.60;96719.47;5051733;28;20244;-81
2022/04/16 10:17:50;;;;;;;8.37;6.63;;;;;;;9.75;70.51;96722.56;5053891;28;20609;-81
2022/04/16 10:20:16;;;;;;;10.47;7.30;;;;;;;9.70;69.68;96725.50;5053513;28;20170;-81
2022/04/16 10:22:58;;;;;;;8.57;6.60;;;;;;;9.71;69.17;96732.34;5052413;28;20577;-82
2022/04/16 10:25:35;;;;;;;7.70;6.70;;;;;;;9.65;69.08;96725.84;5053192;28;20282;-81
2022/04/16 10:28:09;;;;;;;8.67;7.10;;;;;;;9.98;67.75;96733.81;5070095;28;20321;-81
2022/04/16 10:30:36;;;;;;;9.83;6.93;;;;;;;9.69;68.46;96738.59;5045379;28;20186;-80
2022/04/16 10:33:14;;;;;;;8.90;7.57;;;;;;;9.55;68.44;96737.03;5073292;28;20166;-80
2022/04/16 10:35:47;;;;;;;9.50;7.20;;;;;;;9.41;69.35;96732.81;5075559;28;20216;-79
2022/04/16 10:38:21;;;;;;;9.33;6.73;;;;;;;9.79;67.86;96730.00;5059780;28;20247;-81
2022/04/16 10:41:01;;;;;;;7.83;6.67;;;;;;;9.80;67.34;96731.66;5052579;28;20170;-80
2022/04/16 10:43:39;;;;;;;9.10;7.40;;;;;;;9.91;66.76;96733.47;5054511;28;20661;-82
2022/04/16 10:46:09;;;;;;;10.47;8.53;;;;;;;10.03;66.56;96723.94;5059460;28;20182;-81
2022/04/16 10:48:37;;;;;;;9.73;7.57;;;;;;;9.88;66.74;96728.50;5058079;28;20190;-80
2022/04/16 10:51:05;;;;;;;8.90;6.80;;;;;;;9.90;65.42;96722.28;5053719;28;20178;-80
2022/04/16 10:53:32;;;;;;;10.73;7.90;;;;;;;10.00;65.40;96737.97;5055699;28;20198;-81
2022/04/16 10:56:12;;;;;;;9.00;6.27;;;;;;;10.61;62.19;96727.31;5037690;28;20219;-81
2022/04/16 10:58:39;;;;;;;7.67;5.67;;;;;;;11.17;61.92;96724.63;5054253;28;20305;-81
2022/04/16 11:01:07;;;;;;;8.00;6.03;;;;;;;11.44;59.57;96719.78;5054039;28;20298;-82
2022/04/16 11:03:39;;;;;;;7.43;5.33;;;;;;;11.53;59.29;96719.03;5054114;28;20178;-82
2022/04/16 11:06:09;;;;;;;7.90;5.93;;;;;;;11.52;57.97;96721.78;5054155;28;20170;-82
2022/04/16 11:08:35;;;;;;;7.37;5.57;;;;;;;11.35;58.84;96720.53;5053794;28;20707;-82
2022/04/16 11:11:03;;;;;;;7.27;5.40;;;;;;;11.78;57.89;96715.28;5054037;28;20169;-82
2022/04/16 11:13:33;;;;;;;5.80;5.17;;;;;;;11.98;56.61;96710.22;5034251;28;20717;-81
2022/04/16 11:15:59;;;;;;;6.33;5.43;;;;;;;12.01;56.08;96710.78;5052320;28;20269;-82
2022/04/16 11:18:26;;;;;;;6.07;4.87;;;;;;;11.83;56.46;96725.31;5054371;28;20225;-81
2022/04/16 11:20:55;;;;;;;6.03;5.23;;;;;;;11.57;56.73;96714.41;5054419;28;20526;-81
2022/04/16 11:23:25;;;;;;;6.43;5.30;;;;;;;11.32;56.72;96718.19;5052767;28;20763;-82
2022/04/16 11:34:17;;;;;;;6.43;5.40;;;;;;;11.09;57.85;96721.81;5053232;28;20179;-81
2022/04/16 11:36:42;;;;;;;6.63;5.17;;;;;;;11.50;57.19;96719.31;5054157;28;20224;-81
2022/04/16 11:39:19;;;;;;;6.90;4.50;;;;;;;11.72;55.87;96714.94;5053532;28;20205;-81
2022/04/16 11:41:52;;;;;;;6.23;4.50;;;;;;;12.06;54.23;96721.63;5052951;28;20194;-81
2022/04/16 11:44:41;;;;;;;5.97;4.70;;;;;;;11.97;54.19;96719.81;5054524;28;20197;-83
2022/04/16 11:47:20;;;;;;;6.10;5.17;;;;;;;11.62;53.96;96720.06;5041333;28;20194;-82
2022/04/16 11:49:55;;;;;;;8.23;5.23;;;;;;;12.16;54.19;96719.09;5054496;28;20547;-82
2022/04/16 11:52:25;;;;;;;6.13;5.00;;;;;;;12.24;53.38;96721.88;5053179;28;20641;-81
2022/04/16 11:55:01;;;;;;;5.87;4.03;;;;;;;12.07;51.08;96720.69;5035741;28;20186;-81
2022/04/16 11:57:26;;;;;;;4.47;3.77;;;;;;;12.37;52.43;96721.69;5052448;28;20194;-78
2022/04/16 11:59:59;;;;;;;5.30;4.13;;;;;;;12.61;50.63;96722.19;5053349;28;20252;-81
2022/04/16 12:02:33;;;;;;;5.40;3.93;;;;;;;13.15;51.50;96707.91;5051812;28;20189;-81
2022/04/16 12:05:12;;;;;;;4.73;3.60;;;;;;;13.76;49.40;96718.13;5055781;28;20623;-82
2022/04/16 12:07:46;;;;;;;5.07;4.13;;;;;;;13.59;49.70;96711.00;5039531;28;20228;-81
2022/04/16 12:10:13;;;;;;;4.73;3.80;;;;;;;13.48;49.51;96719.78;5055884;28;20269;-81
2022/04/16 12:12:47;;;;;;;3.93;3.53;;;;;;;12.80;47.77;96717.97;5055225;28;20178;-82
2022/04/16 12:15:18;;;;;;;4.37;3.70;;;;;;;13.00;48.32;96719.69;5055832;28;20169;-80
2022/04/16 12:17:44;;;;;;;5.50;3.47;;;;;;;13.20;47.14;96723.19;5038302;28;20548;-80
2022/04/16 12:20:11;;;;;;;4.20;3.63;;;;;;;13.20;46.99;96713.59;5054942;28;20266;-81
2022/04/16 12:22:51;;;;;;;5.90;4.27;;;;;;;13.71;47.73;96709.09;5054484;28;20594;-81
2022/04/16 12:25:18;;;;;;;5.50;4.03;;;;;;;13.74;47.14;96709.63;5038191;28;20230;-81
2022/04/16 12:27:46;;;;;;;4.10;3.70;;;;;;;13.46;47.19;96707.84;5037665;28;20335;-80
2022/04/16 12:30:13;;;;;;;5.10;3.87;;;;;;;13.33;47.26;96714.13;5054812;28;20169;-81
2022/04/16 12:32:39;;;;;;;5.20;4.03;;;;;;;12.73;46.77;96715.94;5053557;28;20185;-78
2022/04/16 12:35:04;;;;;;;5.00;3.10;;;;;;;12.40;46.27;96726.63;5053841;28;20174;-86
2022/04/16 12:37:30;;;;;;;3.27;2.97;;;;;;;11.96;47.60;96725.97;5071539;28;20321;-83